Bishop, Illinois
Current Conditions -  °F | °C
As of 12:54 PM on Thursday 23 Oct 2014 (Local Time) from KPIA Reporting Station
Clear Clear  
Wind Chill: 14°   Ceiling: Unl
Heat Index: 14°   Visibility: 10mi
Dew Point:   Wind: 12mph
Humidity: 62%   Direction: 190°S
Pressure: 30.15"   Gusts: NA
Location:  40.3389°N, 89.8274°W
Report Text: KPIA 231754Z 19010KT 10SM CLR 14/07 A3015 RMK AO2 SLP213 T01390067 10139 20050 58016
Loading
Personal Weather Stations






























Interactive Weather Map
Tropical Storm Tracking
New forecast layout! Learn more

10-Day Weather Forecast

Advertisements
Track Severe Weather on mobile